sensor_id;sensor_type;location;lat;lon;timestamp;pressure;altitude;pressure_sealevel;temperature;humidity
55010;BME280;40903;51.638;7.528;2023-01-24T00:00:23;103203.91;;;3.07;97.84
55010;BME280;40903;51.638;7.528;2023-01-24T00:02:48;103205.97;;;3.05;97.25
55010;BME280;40903;51.638;7.528;2023-01-24T00:05:14;103210.97;;;3.08;96.56
55010;BME280;40903;51.638;7.528;2023-01-24T00:07:39;103205.97;;;3.05;96.69
55010;BME280;40903;51.638;7.528;2023-01-24T00:10:04;103207.63;;;3.06;96.40
55010;BME280;40903;51.638;7.528;2023-01-24T00:12:30;103209.16;;;3.08;96.75
55010;BME280;40903;51.638;7.528;2023-01-24T00:14:55;103204.78;;;3.07;95.61
55010;BME280;40903;51.638;7.528;2023-01-24T00:17:23;103211.56;;;3.03;96.17
55010;BME280;40903;51.638;7.528;2023-01-24T00:19:49;103208.19;;;3.01;96.53
55010;BME280;40903;51.638;7.528;2023-01-24T00:22:14;103214.78;;;2.99;96.60
55010;BME280;40903;51.638;7.528;2023-01-24T00:24:39;103212.44;;;2.96;96.47
55010;BME280;40903;51.638;7.528;2023-01-24T00:27:04;103211.44;;;2.97;95.59
55010;BME280;40903;51.638;7.528;2023-01-24T00:29:30;103209.19;;;3.00;96.38
55010;BME280;40903;51.638;7.528;2023-01-24T00:31:55;103202.13;;;2.99;96.35
55010;BME280;40903;51.638;7.528;2023-01-24T00:34:20;103205.69;;;3.00;96.60
55010;BME280;40903;51.638;7.528;2023-01-24T00:36:45;103194.34;;;3.04;96.10
55010;BME280;40903;51.638;7.528;2023-01-24T00:39:10;103204.66;;;3.01;96.64
55010;BME280;40903;51.638;7.528;2023-01-24T00:41:36;103203.34;;;2.97;96.64
55010;BME280;40903;51.638;7.528;2023-01-24T00:44:01;103202.50;;;2.96;96.84
55010;BME280;40903;51.638;7.528;2023-01-24T00:46:26;103197.97;;;2.97;96.79
55010;BME280;40903;51.638;7.528;2023-01-24T00:48:51;103187.19;;;2.97;96.04
55010;BME280;40903;51.638;7.528;2023-01-24T00:51:17;103187.63;;;3.00;96.35
55010;BME280;40903;51.638;7.528;2023-01-24T00:53:42;103183.47;;;2.98;97.10
55010;BME280;40903;51.638;7.528;2023-01-24T00:56:07;103180.13;;;2.96;96.81
55010;BME280;40903;51.638;7.528;2023-01-24T00:58:32;103191.22;;;2.93;97.34
55010;BME280;40903;51.638;7.528;2023-01-24T01:00:58;103184.84;;;2.94;96.68
55010;BME280;40903;51.638;7.528;2023-01-24T01:03:25;103190.69;;;2.97;96.93
55010;BME280;40903;51.638;7.528;2023-01-24T01:05:56;103194.25;;;2.98;96.73
55010;BME280;40903;51.638;7.528;2023-01-24T01:08:21;103196.94;;;2.98;95.91
55010;BME280;40903;51.638;7.528;2023-01-24T01:10:46;103201.47;;;2.97;95.47
55010;BME280;40903;51.638;7.528;2023-01-24T01:13:12;103198.97;;;2.96;95.73
55010;BME280;40903;51.638;7.528;2023-01-24T01:15:37;103202.22;;;2.91;96.59
55010;BME280;40903;51.638;7.528;2023-01-24T01:18:03;103202.56;;;2.88;96.54
55010;BME280;40903;51.638;7.528;2023-01-24T01:20:28;103209.81;;;2.88;97.17
55010;BME280;40903;51.638;7.528;2023-01-24T01:22:53;103204.41;;;2.88;97.59
55010;BME280;40903;51.638;7.528;2023-01-24T01:25:18;103206.09;;;2.89;97.66
55010;BME280;40903;51.638;7.528;2023-01-24T01:27:44;103217.72;;;2.89;97.10
55010;BME280;40903;51.638;7.528;2023-01-24T01:30:09;103212.13;;;2.91;97.19
55010;BME280;40903;51.638;7.528;2023-01-24T01:32:34;103215.69;;;2.91;97.14
55010;BME280;40903;51.638;7.528;2023-01-24T01:35:00;103218.53;;;2.90;98.15
55010;BME280;40903;51.638;7.528;2023-01-24T01:37:25;103217.34;;;2.92;98.10
55010;BME280;40903;51.638;7.528;2023-01-24T01:39:50;103212.13;;;2.91;96.46
55010;BME280;40903;51.638;7.528;2023-01-24T01:42:15;103207.59;;;2.91;96.29
55010;BME280;40903;51.638;7.528;2023-01-24T01:44:40;103206.41;;;2.94;96.22
55010;BME280;40903;51.638;7.528;2023-01-24T01:49:41;103207.88;;;2.96;96.55
55010;BME280;40903;51.638;7.528;2023-01-24T01:52:08;103209.56;;;2.97;96.55
55010;BME280;40903;51.638;7.528;2023-01-24T01:54:37;103203.03;;;2.92;96.08
55010;BME280;40903;51.638;7.528;2023-01-24T01:57:04;103203.22;;;2.90;96.13
55010;BME280;40903;51.638;7.528;2023-01-24T01:59:37;103208.63;;;2.90;95.94
55010;BME280;40903;51.638;7.528;2023-01-24T02:02:03;103205.06;;;2.90;95.51
55010;BME280;40903;51.638;7.528;2023-01-24T02:04:35;103200.81;;;2.95;95.61
55010;BME280;40903;51.638;7.528;2023-01-24T02:07:02;103202.00;;;2.93;95.86
55010;BME280;40903;51.638;7.528;2023-01-24T02:09:31;103210.47;;;2.90;95.33
55010;BME280;40903;51.638;7.528;2023-01-24T02:11:59;103205.06;;;2.90;95.74
55010;BME280;40903;51.638;7.528;2023-01-24T02:14:25;103210.09;;;2.93;96.15
55010;BME280;40903;51.638;7.528;2023-01-24T02:17:10;103208.25;;;2.93;94.50
55010;BME280;40903;51.638;7.528;2023-01-24T02:19:47;103205.06;;;2.90;94.94
55010;BME280;40903;51.638;7.528;2023-01-24T02:22:39;103201.56;;;2.89;95.46
55010;BME280;40903;51.638;7.528;2023-01-24T02:25:06;103189.91;;;2.89;94.59
55010;BME280;40903;51.638;7.528;2023-01-24T02:27:33;103189.44;;;2.85;94.26
55010;BME280;40903;51.638;7.528;2023-01-24T02:29:58;103185.19;;;2.91;94.90
55010;BME280;40903;51.638;7.528;2023-01-24T02:32:24;103181.66;;;2.90;94.85
55010;BME280;40903;51.638;7.528;2023-01-24T02:34:49;103178.13;;;2.90;95.20
55010;BME280;40903;51.638;7.528;2023-01-24T02:37:14;103180.16;;;2.88;94.33
55010;BME280;40903;51.638;7.528;2023-01-24T02:39:44;103182.84;;;2.88;93.89
55010;BME280;40903;51.638;7.528;2023-01-24T02:42:11;103185.19;;;2.91;93.33
55010;BME280;40903;51.638;7.528;2023-01-24T02:44:40;103181.00;;;2.88;93.53
55010;BME280;40903;51.638;7.528;2023-01-24T02:47:07;103182.38;;;2.84;93.93
55010;BME280;40903;51.638;7.528;2023-01-24T02:49:32;103178.00;;;2.83;93.91
55010;BME280;40903;51.638;7.528;2023-01-24T02:51:58;103175.13;;;2.85;94.20
55010;BME280;40903;51.638;7.528;2023-01-24T02:54:41;103175.13;;;2.85;94.16
55010;BME280;40903;51.638;7.528;2023-01-24T02:57:07;103175.97;;;2.85;93.56
55010;BME280;40903;51.638;7.528;2023-01-24T02:59:51;103171.59;;;2.84;93.11
55010;BME280;40903;51.638;7.528;2023-01-24T03:02:16;103177.34;;;2.81;93.86
55010;BME280;40903;51.638;7.528;2023-01-24T03:04:41;103179.22;;;2.81;93.54
55010;BME280;40903;51.638;7.528;2023-01-24T03:07:06;103174.38;;;2.76;94.29
55010;BME280;40903;51.638;7.528;2023-01-24T03:09:32;103178.25;;;2.74;94.55
55010;BME280;40903;51.638;7.528;2023-01-24T03:12:01;103168.31;;;2.74;94.79
55010;BME280;40903;51.638;7.528;2023-01-24T03:14:46;103172.69;;;2.75;94.37
55010;BME280;40903;51.638;7.528;2023-01-24T03:17:29;103176.84;;;2.78;93.85
55010;BME280;40903;51.638;7.528;2023-01-24T03:20:13;103174.53;;;2.75;94.32
55010;BME280;40903;51.638;7.528;2023-01-24T03:22:57;103170.66;;;2.77;93.15
55010;BME280;40903;51.638;7.528;2023-01-24T03:25:41;103161.25;;;2.73;94.25
55010;BME280;40903;51.638;7.528;2023-01-24T03:28:25;103168.31;;;2.74;94.29
55010;BME280;40903;51.638;7.528;2023-01-24T03:31:08;103161.91;;;2.75;94.66
55010;BME280;40903;51.638;7.528;2023-01-24T03:33:52;103166.44;;;2.75;94.55
55010;BME280;40903;51.638;7.528;2023-01-24T03:36:36;103169.78;;;2.77;94.13
55010;BME280;40903;51.638;7.528;2023-01-24T03:39:01;103168.78;;;2.78;94.32
55010;BME280;40903;51.638;7.528;2023-01-24T03:41:45;103175.19;;;2.77;93.93
55010;BME280;40903;51.638;7.528;2023-01-24T03:44:10;103163.38;;;2.78;94.46
55010;BME280;40903;51.638;7.528;2023-01-24T03:46:35;103169.78;;;2.77;94.49
55010;BME280;40903;51.638;7.528;2023-01-24T03:49:04;103164.41;;;2.77;94.57
55010;BME280;40903;51.638;7.528;2023-01-24T03:51:30;103169.34;;;2.73;94.58
55010;BME280;40903;51.638;7.528;2023-01-24T03:54:13;103173.72;;;2.74;94.33
55010;BME280;40903;51.638;7.528;2023-01-24T03:56:39;103173.06;;;2.72;94.93
55010;BME280;40903;51.638;7.528;2023-01-24T03:59:04;103167.66;;;2.72;94.99
55010;BME280;40903;51.638;7.528;2023-01-24T04:01:29;103170.53;;;2.71;95.39
55010;BME280;40903;51.638;7.528;2023-01-24T04:03:54;103168.84;;;2.70;95.63
55010;BME280;40903;51.638;7.528;2023-01-24T04:06:19;103168.69;;;2.71;95.35
55010;BME280;40903;51.638;7.528;2023-01-24T04:08:45;103171.47;;;2.78;95.18
55010;BME280;40903;51.638;7.528;2023-01-24T04:11:10;103167.66;;;2.72;94.54
55010;BME280;40903;51.638;7.528;2023-01-24T04:13:35;103172.69;;;2.75;94.43
55010;BME280;40903;51.638;7.528;2023-01-24T04:16:00;103158.19;;;2.76;95.17
55010;BME280;40903;51.638;7.528;2023-01-24T04:18:26;103175.19;;;2.77;94.63
55010;BME280;40903;51.638;7.528;2023-01-24T04:20:51;103168.78;;;2.78;94.25
55010;BME280;40903;51.638;7.528;2023-01-24T04:23:16;103163.38;;;2.78;93.78
55010;BME280;40903;51.638;7.528;2023-01-24T04:25:41;103157.34;;;2.76;93.81
55010;BME280;40903;51.638;7.528;2023-01-24T04:28:06;103162.09;;;2.74;93.68
55010;BME280;40903;51.638;7.528;2023-01-24T04:30:32;103155.31;;;2.78;94.05
55010;BME280;40903;51.638;7.528;2023-01-24T04:32:57;103166.09;;;2.78;94.24
55010;BME280;40903;51.638;7.528;2023-01-24T04:35:23;103162.56;;;2.77;93.64
55010;BME280;40903;51.638;7.528;2023-01-24T04:37:49;103163.59;;;2.76;94.10
55010;BME280;40903;51.638;7.528;2023-01-24T04:40:14;103158.19;;;2.76;94.22
55010;BME280;40903;51.638;7.528;2023-01-24T04:42:40;103156.69;;;2.74;94.56
55010;BME280;40903;51.638;7.528;2023-01-24T04:45:05;103159.22;;;2.75;94.88
55010;BME280;40903;51.638;7.528;2023-01-24T04:47:31;103161.56;;;2.78;93.71
55010;BME280;40903;51.638;7.528;2023-01-24T04:49:56;103159.59;;;2.72;93.85
55010;BME280;40903;51.638;7.528;2023-01-24T04:52:21;103164.28;;;2.70;94.94
55010;BME280;40903;51.638;7.528;2023-01-24T04:54:46;103155.66;;;2.75;94.60
55010;BME280;40903;51.638;7.528;2023-01-24T04:57:12;103164.28;;;2.70;94.66
55010;BME280;40903;51.638;7.528;2023-01-24T04:59:37;103166.81;;;2.72;94.95
55010;BME280;40903;51.638;7.528;2023-01-24T05:02:03;103166.53;;;2.67;94.56
55010;BME280;40903;51.638;7.528;2023-01-24T05:04:28;103164.47;;;2.69;93.91
55010;BME280;40903;51.638;7.528;2023-01-24T05:06:53;103165.13;;;2.71;94.07
55010;BME280;40903;51.638;7.528;2023-01-24T05:09:18;103164.13;;;2.72;94.34
55010;BME280;40903;51.638;7.528;2023-01-24T05:11:43;103161.78;;;2.69;94.58
55010;BME280;40903;51.638;7.528;2023-01-24T05:14:09;103168.50;;;2.73;94.51
55010;BME280;40903;51.638;7.528;2023-01-24T05:16:34;103168.50;;;2.73;94.35
55010;BME280;40903;51.638;7.528;2023-01-24T05:19:00;103172.19;;;2.72;94.71
55010;BME280;40903;51.638;7.528;2023-01-24T05:21:25;103174.59;;;2.67;94.08
55010;BME280;40903;51.638;7.528;2023-01-24T05:23:50;103175.44;;;2.67;94.48
55010;BME280;40903;51.638;7.528;2023-01-24T05:26:17;103169.22;;;2.67;93.87
55010;BME280;40903;51.638;7.528;2023-01-24T05:28:42;103172.56;;;2.69;93.85
55010;BME280;40903;51.638;7.528;2023-01-24T05:31:07;103183.34;;;2.69;94.10
55010;BME280;40903;51.638;7.528;2023-01-24T05:33:33;103175.06;;;2.70;94.22
55010;BME280;40903;51.638;7.528;2023-01-24T05:36:03;103182.31;;;2.70;94.16
55010;BME280;40903;51.638;7.528;2023-01-24T05:38:29;103187.53;;;2.71;94.23
55010;BME280;40903;51.638;7.528;2023-01-24T05:40:58;103185.38;;;2.67;93.88
55010;BME280;40903;51.638;7.528;2023-01-24T05:43:23;103182.50;;;2.68;94.70
55010;BME280;40903;51.638;7.528;2023-01-24T05:45:48;103185.84;;;2.70;94.83
55010;BME280;40903;51.638;7.528;2023-01-24T05:48:13;103188.38;;;2.72;94.69
55010;BME280;40903;51.638;7.528;2023-01-24T05:50:38;103188.38;;;2.72;93.75
55010;BME280;40903;51.638;7.528;2023-01-24T05:53:04;103195.97;;;2.68;94.19
55010;BME280;40903;51.638;7.528;2023-01-24T05:55:29;103192.72;;;2.73;94.40
55010;BME280;40903;51.638;7.528;2023-01-24T05:57:54;103197.09;;;2.74;94.11
55010;BME280;40903;51.638;7.528;2023-01-24T06:00:19;103201.34;;;2.68;94.16
55010;BME280;40903;51.638;7.528;2023-01-24T06:02:45;103199.00;;;2.65;94.42
55010;BME280;40903;51.638;7.528;2023-01-24T06:05:10;103204.88;;;2.69;94.33
55010;BME280;40903;51.638;7.528;2023-01-24T06:07:35;103208.25;;;2.71;94.15
55010;BME280;40903;51.638;7.528;2023-01-24T06:10:01;103209.91;;;2.72;93.85
55010;BME280;40903;51.638;7.528;2023-01-24T06:12:26;103211.09;;;2.69;94.22
55010;BME280;40903;51.638;7.528;2023-01-24T06:14:51;103208.13;;;2.64;93.48
55010;BME280;40903;51.638;7.528;2023-01-24T06:17:16;103216.34;;;2.63;93.41
55010;BME280;40903;51.638;7.528;2023-01-24T06:19:42;103223.44;;;2.64;92.83
55010;BME280;40903;51.638;7.528;2023-01-24T06:22:15;103224.28;;;2.64;92.24
55010;BME280;40903;51.638;7.528;2023-01-24T06:24:45;103221.59;;;2.64;92.33
55010;BME280;40903;51.638;7.528;2023-01-24T06:27:10;103223.09;;;2.67;92.71
55010;BME280;40903;51.638;7.528;2023-01-24T06:29:36;103228.84;;;2.64;93.54
55010;BME280;40903;51.638;7.528;2023-01-24T06:39:32;103234.22;;;2.64;94.15
55010;BME280;40903;51.638;7.528;2023-01-24T06:41:58;103241.94;;;2.67;94.39
55010;BME280;40903;51.638;7.528;2023-01-24T06:44:23;103237.75;;;2.64;93.38
55010;BME280;40903;51.638;7.528;2023-01-24T06:46:48;103245.81;;;2.64;93.95
55010;BME280;40903;51.638;7.528;2023-01-24T06:49:14;103255.41;;;2.67;93.68
55010;BME280;40903;51.638;7.528;2023-01-24T06:51:39;103249.38;;;2.65;93.79
55010;BME280;40903;51.638;7.528;2023-01-24T06:54:04;103260.16;;;2.65;94.16
55010;BME280;40903;51.638;7.528;2023-01-24T06:56:29;103253.09;;;2.64;93.74
55010;BME280;40903;51.638;7.528;2023-01-24T06:58:55;103253.75;;;2.66;94.00
55010;BME280;40903;51.638;7.528;2023-01-24T07:01:20;103258.94;;;2.67;93.85
55010;BME280;40903;51.638;7.528;2023-01-24T07:03:45;103257.91;;;2.68;93.49
55010;BME280;40903;51.638;7.528;2023-01-24T07:06:10;103262.47;;;2.68;92.69
55010;BME280;40903;51.638;7.528;2023-01-24T07:08:36;103262.13;;;2.71;92.96
55010;BME280;40903;51.638;7.528;2023-01-24T07:11:01;103264.69;;;2.64;92.75
55010;BME280;40903;51.638;7.528;2023-01-24T07:13:26;103264.19;;;2.61;93.22
55010;BME280;40903;51.638;7.528;2023-01-24T07:15:52;103264.84;;;2.63;93.17
55010;BME280;40903;51.638;7.528;2023-01-24T07:18:17;103263.53;;;2.59;93.64
55010;BME280;40903;51.638;7.528;2023-01-24T07:20:47;103259.16;;;2.58;93.45
55010;BME280;40903;51.638;7.528;2023-01-24T07:23:16;103260.38;;;2.55;93.49
55010;BME280;40903;51.638;7.528;2023-01-24T07:25:43;103260.00;;;2.58;93.18
55010;BME280;40903;51.638;7.528;2023-01-24T07:28:08;103256.81;;;2.55;92.92
55010;BME280;40903;51.638;7.528;2023-01-24T07:30:33;103262.22;;;2.55;93.18
55010;BME280;40903;51.638;7.528;2023-01-24T07:32:58;103269.28;;;2.56;93.23
55010;BME280;40903;51.638;7.528;2023-01-24T07:35:24;103270.22;;;2.63;92.76
55010;BME280;40903;51.638;7.528;2023-01-24T07:37:49;103266.72;;;2.62;92.57
55010;BME280;40903;51.638;7.528;2023-01-24T07:40:14;103269.75;;;2.59;92.47
55010;BME280;40903;51.638;7.528;2023-01-24T07:42:39;103279.03;;;2.57;91.78
55010;BME280;40903;51.638;7.528;2023-01-24T07:45:05;103273.13;;;2.53;92.63
55010;BME280;40903;51.638;7.528;2023-01-24T07:47:30;103288.47;;;2.53;92.92
55010;BME280;40903;51.638;7.528;2023-01-24T07:49:55;103292.19;;;2.52;93.49
55010;BME280;40903;51.638;7.528;2023-01-24T07:52:21;103289.13;;;2.55;92.87
55010;BME280;40903;51.638;7.528;2023-01-24T07:54:47;103283.03;;;2.61;92.75
55010;BME280;40903;51.638;7.528;2023-01-24T07:57:12;103281.00;;;2.63;91.69
55010;BME280;40903;51.638;7.528;2023-01-24T07:59:37;103285.06;;;2.59;92.40
55010;BME280;40903;51.638;7.528;2023-01-24T08:02:02;103293.16;;;2.59;92.13
55010;BME280;40903;51.638;7.528;2023-01-24T08:04:27;103293.00;;;2.60;92.34
55010;BME280;40903;51.638;7.528;2023-01-24T08:06:53;103291.78;;;2.63;92.49
55010;BME280;40903;51.638;7.528;2023-01-24T08:09:36;103297.34;;;2.61;93.06
55010;BME280;40903;51.638;7.528;2023-01-24T08:12:02;103296.69;;;2.59;92.61
55010;BME280;40903;51.638;7.528;2023-01-24T08:14:27;103301.56;;;2.64;92.94
55010;BME280;40903;51.638;7.528;2023-01-24T08:16:52;103295.97;;;2.65;92.51
55010;BME280;40903;51.638;7.528;2023-01-24T08:19:17;103299.84;;;2.63;92.72
55010;BME280;40903;51.638;7.528;2023-01-24T08:21:42;103310.53;;;2.56;92.38
55010;BME280;40903;51.638;7.528;2023-01-24T08:24:08;103309.97;;;2.61;92.41
55010;BME280;40903;51.638;7.528;2023-01-24T08:26:33;103307.63;;;2.66;92.44
55010;BME280;40903;51.638;7.528;2023-01-24T08:28:58;103315.34;;;2.61;92.14
55010;BME280;40903;51.638;7.528;2023-01-24T08:31:24;103303.91;;;2.67;92.18
55010;BME280;40903;51.638;7.528;2023-01-24T08:33:49;103304.56;;;2.69;93.07
55010;BME280;40903;51.638;7.528;2023-01-24T08:36:14;103303.38;;;2.71;93.71
55010;BME280;40903;51.638;7.528;2023-01-24T08:38:39;103302.38;;;2.72;93.23
55010;BME280;40903;51.638;7.528;2023-01-24T08:41:05;103306.53;;;2.75;92.92
55010;BME280;40903;51.638;7.528;2023-01-24T08:43:30;103312.41;;;2.78;92.98
55010;BME280;40903;51.638;7.528;2023-01-24T08:45:55;103310.09;;;2.75;91.44
55010;BME280;40903;51.638;7.528;2023-01-24T08:48:21;103309.88;;;2.77;91.79
55010;BME280;40903;51.638;7.528;2023-01-24T08:50:46;103312.78;;;2.75;91.51
55010;BME280;40903;51.638;7.528;2023-01-24T08:53:11;103320.88;;;2.75;91.87
55010;BME280;40903;51.638;7.528;2023-01-24T08:55:36;103322.03;;;2.81;92.04
55010;BME280;40903;51.638;7.528;2023-01-24T08:58:02;103326.56;;;2.80;91.98
55010;BME280;40903;51.638;7.528;2023-01-24T09:00:28;103322.97;;;2.88;92.09
55010;BME280;40903;51.638;7.528;2023-01-24T09:02:53;103333.75;;;2.88;91.53
55010;BME280;40903;51.638;7.528;2023-01-24T09:05:19;103332.25;;;2.85;91.33
55010;BME280;40903;51.638;7.528;2023-01-24T09:07:45;103339.50;;;2.85;91.28
55010;BME280;40903;51.638;7.528;2023-01-24T09:10:11;103348.09;;;2.88;91.55
55010;BME280;40903;51.638;7.528;2023-01-24T09:12:36;103336.44;;;2.88;91.90
55010;BME280;40903;51.638;7.528;2023-01-24T09:15:01;103344.53;;;2.88;92.08
55010;BME280;40903;51.638;7.528;2023-01-24T09:17:26;103347.06;;;2.89;91.10
55010;BME280;40903;51.638;7.528;2023-01-24T09:19:52;103348.53;;;2.92;90.78
55010;BME280;40903;51.638;7.528;2023-01-24T09:22:17;103340.47;;;2.92;91.61
55010;BME280;40903;51.638;7.528;2023-01-24T09:24:42;103337.78;;;2.92;91.22
55010;BME280;40903;51.638;7.528;2023-01-24T09:27:09;103337.91;;;2.98;90.99
55010;BME280;40903;51.638;7.528;2023-01-24T09:29:34;103338.22;;;3.03;90.92
55010;BME280;40903;51.638;7.528;2023-01-24T09:31:59;103335.19;;;3.06;91.10
55010;BME280;40903;51.638;7.528;2023-01-24T09:34:24;103343.06;;;3.08;90.40
55010;BME280;40903;51.638;7.528;2023-01-24T09:36:50;103347.28;;;3.10;90.40
55010;BME280;40903;51.638;7.528;2023-01-24T09:39:15;103345.44;;;3.11;90.39
55010;BME280;40903;51.638;7.528;2023-01-24T09:44:18;103357.53;;;3.15;89.81
55010;BME280;40903;51.638;7.528;2023-01-24T09:46:46;103349.28;;;3.16;90.75
55010;BME280;40903;51.638;7.528;2023-01-24T09:51:41;103355.66;;;3.15;89.62
55010;BME280;40903;51.638;7.528;2023-01-24T09:54:09;103357.53;;;3.15;90.72
55010;BME280;40903;51.638;7.528;2023-01-24T09:56:41;103357.38;;;3.16;90.11
55010;BME280;40903;51.638;7.528;2023-01-24T10:01:39;103362.84;;;3.23;90.11
55010;BME280;40903;51.638;7.528;2023-01-24T10:04:10;103362.69;;;3.24;88.70
55010;BME280;40903;51.638;7.528;2023-01-24T10:06:38;103364.00;;;3.28;90.23
55010;BME280;40903;51.638;7.528;2023-01-24T10:24:44;103361.97;;;3.53;88.23
55010;BME280;40903;51.638;7.528;2023-01-24T10:27:24;103353.22;;;3.51;87.64
55010;BME280;40903;51.638;7.528;2023-01-24T10:29:57;103357.28;;;3.55;87.76
55010;BME280;40903;51.638;7.528;2023-01-24T10:32:29;103360.63;;;3.57;87.50
55010;BME280;40903;51.638;7.528;2023-01-24T10:34:59;103350.00;;;3.55;86.38
55010;BME280;40903;51.638;7.528;2023-01-24T10:37:28;103350.72;;;3.49;85.94
55010;BME280;40903;51.638;7.528;2023-01-24T10:39:57;103345.63;;;3.54;86.24
55010;BME280;40903;51.638;7.528;2023-01-24T10:42:30;103354.09;;;3.51;86.43
55010;BME280;40903;51.638;7.528;2023-01-24T10:44:58;103353.22;;;3.51;86.38
55010;BME280;40903;51.638;7.528;2023-01-24T10:47:41;103345.47;;;3.56;87.40
55010;BME280;40903;51.638;7.528;2023-01-24T10:50:10;103349.34;;;3.53;86.91
55010;BME280;40903;51.638;7.528;2023-01-24T10:52:35;103341.75;;;3.57;87.71
55010;BME280;40903;51.638;7.528;2023-01-24T10:55:01;103343.03;;;3.61;86.73
55010;BME280;40903;51.638;7.528;2023-01-24T10:59:52;103336.63;;;3.62;86.10
55010;BME280;40903;51.638;7.528;2023-01-24T11:02:22;103334.91;;;3.69;87.55
55010;BME280;40903;51.638;7.528;2023-01-24T11:04:51;103340.88;;;3.78;86.71
55010;BME280;40903;51.638;7.528;2023-01-24T11:07:25;103339.47;;;3.82;86.60
55010;BME280;40903;51.638;7.528;2023-01-24T11:09:51;103336.22;;;3.87;86.65
55010;BME280;40903;51.638;7.528;2023-01-24T11:12:16;103334.75;;;3.84;84.20
55010;BME280;40903;51.638;7.528;2023-01-24T11:14:43;103327.75;;;3.90;85.02
55010;BME280;40903;51.638;7.528;2023-01-24T11:17:26;103325.66;;;4.00;84.86
55010;BME280;40903;51.638;7.528;2023-01-24T11:19:57;103325.47;;;4.01;85.01
55010;BME280;40903;51.638;7.528;2023-01-24T11:22:24;103329.31;;;4.07;84.46
55010;BME280;40903;51.638;7.528;2023-01-24T11:24:49;103341.31;;;4.04;83.58
55010;BME280;40903;51.638;7.528;2023-01-24T11:27:15;103328.47;;;4.06;83.85
55010;BME280;40903;51.638;7.528;2023-01-24T11:29:41;103324.72;;;4.07;83.89
55010;BME280;40903;51.638;7.528;2023-01-24T11:34:57;103319.72;;;4.04;84.38
55010;BME280;40903;51.638;7.528;2023-01-24T11:45:36;103322.13;;;4.14;83.75
55010;BME280;40903;51.638;7.528;2023-01-24T11:51:03;103312.47;;;4.19;82.79
55010;BME280;40903;51.638;7.528;2023-01-24T11:55:59;103307.63;;;4.29;84.44
55010;BME280;40903;51.638;7.528;2023-01-24T11:58:46;103306.41;;;4.32;84.15
55010;BME280;40903;51.638;7.528;2023-01-24T12:09:30;103291.34;;;4.23;84.71
55010;BME280;40903;51.638;7.528;2023-01-24T12:12:03;103289.66;;;4.22;82.97
55010;BME280;40903;51.638;7.528;2023-01-24T12:17:04;103280.06;;;4.19;83.08
55010;BME280;40903;51.638;7.528;2023-01-24T12:19:49;103278.94;;;4.14;83.37
55010;BME280;40903;51.638;7.528;2023-01-24T12:22:24;103275.41;;;4.13;83.33
55010;BME280;40903;51.638;7.528;2023-01-24T12:24:58;103271.50;;;4.01;82.53
55010;BME280;40903;51.638;7.528;2023-01-24T12:27:26;103270.25;;;4.04;84.16
55010;BME280;40903;51.638;7.528;2023-01-24T12:32:26;103267.56;;;4.18;84.40
55010;BME280;40903;51.638;7.528;2023-01-24T12:34:56;103265.69;;;4.19;83.77
55010;BME280;40903;51.638;7.528;2023-01-24T12:37:35;103263.19;;;4.17;83.29
55010;BME280;40903;51.638;7.528;2023-01-24T12:42:46;103258.91;;;4.23;83.89
55010;BME280;40903;51.638;7.528;2023-01-24T12:45:18;103257.13;;;4.30;84.55
55010;BME280;40903;51.638;7.528;2023-01-24T12:50:15;103247.19;;;4.30;82.62
55010;BME280;40903;51.638;7.528;2023-01-24T12:52:47;103243.16;;;4.26;82.50
55010;BME280;40903;51.638;7.528;2023-01-24T12:57:49;103241.69;;;4.24;82.79
55010;BME280;40903;51.638;7.528;2023-01-24T13:00:19;103238.22;;;4.30;82.73
55010;BME280;40903;51.638;7.528;2023-01-24T13:02:55;103238.44;;;4.28;83.01
55010;BME280;40903;51.638;7.528;2023-01-24T13:05:28;103233.97;;;4.21;82.25
55010;BME280;40903;51.638;7.528;2023-01-24T13:10:35;103232.66;;;4.17;83.34
55010;BME280;40903;51.638;7.528;2023-01-24T13:13:03;103233.88;;;4.14;83.88
55010;BME280;40903;51.638;7.528;2023-01-24T13:15:32;103227.44;;;4.15;83.80
55010;BME280;40903;51.638;7.528;2023-01-24T13:23:19;103239.81;;;4.24;84.81
55010;BME280;40903;51.638;7.528;2023-01-24T13:31:07;103231.06;;;3.93;82.91
55010;BME280;40903;51.638;7.528;2023-01-24T13:34:09;103236.84;;;3.90;82.84
55010;BME280;40903;51.638;7.528;2023-01-24T13:36:31;103234.31;;;3.89;83.79
55010;BME280;40903;51.638;7.528;2023-01-24T13:38:57;103233.22;;;3.83;83.97
55010;BME280;40903;51.638;7.528;2023-01-24T13:43:57;103226.22;;;3.89;84.19
55010;BME280;40903;51.638;7.528;2023-01-24T13:49:31;103221.28;;;3.92;84.43
55010;BME280;40903;51.638;7.528;2023-01-24T13:52:00;103226.53;;;3.94;84.36
55010;BME280;40903;51.638;7.528;2023-01-24T14:05:00;103233.03;;;3.85;84.06
55010;BME280;40903;51.638;7.528;2023-01-24T14:07:36;103236.28;;;3.80;84.12
55010;BME280;40903;51.638;7.528;2023-01-24T14:10:04;103236.47;;;3.79;83.80
55010;BME280;40903;51.638;7.528;2023-01-24T14:12:31;103244.47;;;3.73;84.29
55010;BME280;40903;51.638;7.528;2023-01-24T14:20:50;103251.25;;;3.69;84.95
55010;BME280;40903;51.638;7.528;2023-01-24T14:22:57;103253.97;;;3.69;84.96
55010;BME280;40903;51.638;7.528;2023-01-24T14:28:18;103258.41;;;3.62;84.84
55010;BME280;40903;51.638;7.528;2023-01-24T14:30:55;103258.13;;;3.57;84.97
55010;BME280;40903;51.638;7.528;2023-01-24T14:33:40;103255.38;;;3.42;85.04
55010;BME280;40903;51.638;7.528;2023-01-24T14:36:27;103260.31;;;3.39;86.13
55010;BME280;40903;51.638;7.528;2023-01-24T14:41:38;103253.47;;;3.28;86.15
55010;BME280;40903;51.638;7.528;2023-01-24T14:44:14;103251.53;;;3.37;86.95
55010;BME280;40903;51.638;7.528;2023-01-24T14:46:40;103261.28;;;3.38;86.33
55010;BME280;40903;51.638;7.528;2023-01-24T14:49:14;103257.59;;;3.39;86.15
55010;BME280;40903;51.638;7.528;2023-01-24T14:51:43;103261.22;;;3.31;86.55
55010;BME280;40903;51.638;7.528;2023-01-24T14:54:20;103267.00;;;3.20;86.44
55010;BME280;40903;51.638;7.528;2023-01-24T14:56:45;103267.66;;;3.22;86.88